Time;durP1;ratioP1;P1;durP2;ratioP2;P2;SDS_P1;SDS_P2;PMS_P1;PMS_P2;Temp;Humidity;BMP_temperature;BMP_pressure;BME280_temperature;BME280_humidity;BME280_pressure;Samples;Min_cycle;Max_cycle;Signal;HPM_P1;HPM_P2
2022/03/30 00:00:43;;;;;;;19.08;10.30;;;18.80;46.90;;;;;;5074642;28;20031;-80
2022/03/30 00:03:09;;;;;;;18.98;11.50;;;18.80;46.30;;;;;;5056476;28;20025;-85
2022/03/30 00:05:34;;;;;;;19.23;10.75;;;18.70;46.30;;;;;;5073996;28;20051;-86
2022/03/30 00:08:00;;;;;;;18.85;11.05;;;18.90;45.80;;;;;;5073715;28;20447;-82
2022/03/30 00:10:26;;;;;;;16.58;10.43;;;19.00;45.60;;;;;;5073831;28;20024;-84
2022/03/30 00:12:52;;;;;;;17.17;10.57;;;19.10;45.60;;;;;;5074481;28;20041;-83
2022/03/30 00:15:18;;;;;;;16.35;10.75;;;19.20;45.40;;;;;;5074109;28;20446;-86
2022/03/30 00:17:44;;;;;;;17.63;10.55;;;19.10;45.20;;;;;;5073953;28;20099;-86
2022/03/30 00:20:10;;;;;;;17.50;11.07;;;19.20;45.00;;;;;;5055910;28;20021;-79
2022/03/30 00:22:38;;;;;;;19.27;10.75;;;19.10;44.30;;;;;;5074040;28;20036;-80
2022/03/30 00:25:06;;;;;;;16.80;10.63;;;19.20;43.60;;;;;;5056467;28;20077;-82
2022/03/30 00:27:31;;;;;;;20.20;11.20;;;19.20;44.30;;;;;;5056298;28;20024;-80
2022/03/30 00:29:57;;;;;;;16.33;10.15;;;19.00;43.90;;;;;;5073556;28;20062;-85
2022/03/30 00:32:23;;;;;;;19.10;10.52;;;18.60;45.10;;;;;;5073819;28;20082;-85
2022/03/30 00:34:48;;;;;;;17.70;10.85;;;18.10;46.00;;;;;;5056209;28;20021;-85
2022/03/30 00:37:14;;;;;;;18.42;10.60;;;17.60;47.80;;;;;;5056307;28;20032;-83
2022/03/30 00:39:40;;;;;;;18.17;10.68;;;17.60;47.80;;;;;;5055757;28;20135;-83
2022/03/30 00:42:16;;;;;;;17.02;10.73;;;17.80;46.60;;;;;;5055720;28;20047;-86
2022/03/30 00:44:42;;;;;;;18.65;10.40;;;18.30;46.00;;;;;;5073532;28;20095;-82
2022/03/30 00:47:16;;;;;;;18.17;10.85;;;18.70;45.40;;;;;;5055393;28;20344;-85
2022/03/30 00:49:42;;;;;;;19.60;10.90;;;18.80;44.60;;;;;;5055775;28;20021;-82
2022/03/30 00:52:08;;;;;;;16.95;10.48;;;18.90;44.40;;;;;;5073536;28;20028;-84
2022/03/30 00:54:34;;;;;;;18.27;10.95;;;19.00;44.10;;;;;;5055642;28;20056;-84
2022/03/30 00:57:01;;;;;;;17.40;10.95;;;18.70;44.60;;;;;;5055857;28;20021;-85
2022/03/30 00:59:27;;;;;;;16.40;10.35;;;18.40;45.50;;;;;;5055892;28;20024;-81
2022/03/30 01:01:52;;;;;;;22.73;13.30;;;18.70;45.00;;;;;;5055255;28;20031;-81
2022/03/30 01:04:18;;;;;;;24.35;13.73;;;18.30;46.20;;;;;;5073334;28;20009;-82
2022/03/30 01:06:45;;;;;;;26.05;14.57;;;18.50;45.70;;;;;;5044827;28;20588;-86
2022/03/30 01:09:11;;;;;;;23.17;13.88;;;18.80;44.70;;;;;;5055474;28;20043;-81
2022/03/30 01:11:36;;;;;;;23.25;12.43;;;19.00;44.80;;;;;;5055517;28;20356;-82
2022/03/30 01:14:02;;;;;;;21.17;12.32;;;19.10;44.40;;;;;;5054786;28;20475;-84
2022/03/30 01:16:29;;;;;;;20.50;11.60;;;19.10;44.30;;;;;;5055466;28;20021;-84
2022/03/30 01:19:06;;;;;;;19.58;12.02;;;19.00;44.70;;;;;;5073163;28;20025;-81
2022/03/30 01:21:32;;;;;;;20.33;12.30;;;18.90;44.60;;;;;;5055966;28;20020;-86
2022/03/30 01:23:58;;;;;;;25.05;13.30;;;19.00;43.80;;;;;;5055536;28;20119;-85
2022/03/30 01:26:25;;;;;;;21.85;13.38;;;19.10;43.20;;;;;;5055440;28;20434;-86
2022/03/30 01:28:51;;;;;;;20.25;13.52;;;19.30;42.80;;;;;;5073335;28;20024;-84
2022/03/30 01:34:01;;;;;;;22.52;12.63;;;19.30;43.50;;;;;;5073327;28;20038;-85
2022/03/30 01:36:27;;;;;;;18.55;11.77;;;18.90;44.10;;;;;;5054846;28;20016;-83
2022/03/30 01:38:53;;;;;;;23.33;13.32;;;18.60;44.90;;;;;;5055650;28;20409;-81
2022/03/30 01:41:18;;;;;;;21.10;13.27;;;18.30;44.10;;;;;;5073273;28;20025;-85
2022/03/30 01:43:44;;;;;;;19.48;12.68;;;18.30;45.20;;;;;;5055436;28;20077;-83
2022/03/30 01:46:10;;;;;;;28.08;14.75;;;18.60;44.50;;;;;;5055156;28;20009;-84
2022/03/30 01:48:36;;;;;;;26.95;15.02;;;18.70;43.70;;;;;;5055442;28;20039;-81
2022/03/30 01:51:01;;;;;;;26.60;14.80;;;18.90;43.30;;;;;;5054962;28;20407;-82
2022/03/30 01:53:27;;;;;;;23.90;14.75;;;19.00;43.10;;;;;;5054929;28;20037;-82
2022/03/30 01:55:53;;;;;;;25.05;14.50;;;19.10;43.10;;;;;;5057717;28;20008;-82
2022/03/30 01:58:19;;;;;;;26.52;15.32;;;19.20;43.00;;;;;;5077187;28;20051;-80
2022/03/30 02:00:45;;;;;;;25.38;15.18;;;19.40;42.70;;;;;;5058949;28;20020;-86
2022/03/30 02:03:12;;;;;;;26.98;15.20;;;19.40;42.90;;;;;;5076769;28;20024;-81
2022/03/30 02:05:38;;;;;;;28.70;14.50;;;19.50;42.90;;;;;;5076638;28;20020;-83
2022/03/30 02:08:04;;;;;;;23.00;14.80;;;19.50;42.70;;;;;;5075944;28;20033;-81
2022/03/30 02:10:31;;;;;;;22.75;14.48;;;19.50;42.80;;;;;;5076578;28;20024;-81
2022/03/30 02:12:58;;;;;;;24.55;14.68;;;19.30;42.80;;;;;;5076256;28;20474;-86
2022/03/30 02:15:24;;;;;;;22.83;14.40;;;19.30;43.00;;;;;;5058941;28;20031;-85
2022/03/30 02:17:50;;;;;;;21.50;13.98;;;19.20;43.30;;;;;;5053616;28;20814;-85
2022/03/30 02:20:16;;;;;;;22.92;14.48;;;19.20;43.30;;;;;;5058707;28;20388;-85
2022/03/30 02:22:42;;;;;;;22.92;12.65;;;19.10;43.40;;;;;;5076428;28;20462;-82
2022/03/30 02:25:09;;;;;;;23.00;13.45;;;19.00;43.50;;;;;;5076342;28;20046;-84
2022/03/30 02:27:36;;;;;;;25.15;14.80;;;19.10;43.60;;;;;;5076530;28;20021;-82
2022/03/30 02:30:02;;;;;;;24.15;14.88;;;19.10;43.30;;;;;;5058401;28;20031;-82
2022/03/30 02:32:28;;;;;;;23.50;14.07;;;18.60;44.10;;;;;;5076326;28;20078;-85
2022/03/30 02:34:54;;;;;;;23.98;15.15;;;18.30;44.60;;;;;;5058342;28;20020;-82
2022/03/30 02:37:20;;;;;;;19.98;13.63;;;18.30;45.50;;;;;;5058028;28;20031;-85
2022/03/30 02:39:45;;;;;;;24.10;14.35;;;18.20;45.10;;;;;;5075980;28;20028;-82
2022/03/30 02:42:11;;;;;;;22.48;13.43;;;18.20;44.80;;;;;;5063179;28;20074;-85
2022/03/30 02:44:38;;;;;;;20.95;14.32;;;18.10;44.90;;;;;;5055838;28;20020;-86
2022/03/30 02:47:04;;;;;;;22.70;14.13;;;18.20;44.90;;;;;;5075969;28;20024;-86
2022/03/30 02:49:30;;;;;;;28.33;14.68;;;18.30;45.50;;;;;;5057884;28;20067;-80
2022/03/30 02:51:56;;;;;;;21.98;13.82;;;18.30;45.70;;;;;;5058164;28;20024;-86
2022/03/30 02:54:24;;;;;;;25.80;14.32;;;18.30;45.40;;;;;;5058080;28;20036;-81
2022/03/30 02:56:50;;;;;;;23.83;15.55;;;18.30;45.90;;;;;;5058182;28;20021;-86
2022/03/30 02:59:16;;;;;;;23.17;14.32;;;18.30;45.90;;;;;;5075881;28;20028;-82
2022/03/30 03:01:41;;;;;;;24.17;14.55;;;18.30;45.50;;;;;;5057869;28;20014;-85
2022/03/30 03:04:07;;;;;;;27.23;14.50;;;17.90;45.80;;;;;;5057888;28;20395;-84
2022/03/30 03:06:33;;;;;;;25.48;15.20;;;17.70;46.40;;;;;;5057529;28;20112;-83
2022/03/30 03:08:59;;;;;;;19.63;13.10;;;17.70;46.40;;;;;;5058187;28;20027;-81
2022/03/30 03:11:25;;;;;;;25.35;15.18;;;17.80;46.00;;;;;;5057836;28;20028;-85
2022/03/30 03:13:51;;;;;;;27.48;15.40;;;17.80;46.10;;;;;;5057597;28;20047;-81
2022/03/30 03:16:18;;;;;;;26.40;14.75;;;17.90;45.90;;;;;;5057515;28;20061;-81
2022/03/30 03:18:44;;;;;;;27.17;15.00;;;18.00;45.70;;;;;;5057748;28;20020;-84
2022/03/30 03:21:10;;;;;;;25.08;14.57;;;18.00;45.40;;;;;;5057522;28;20036;-85
2022/03/30 03:23:36;;;;;;;26.35;14.70;;;18.00;45.80;;;;;;5057634;28;20052;-82
2022/03/30 03:26:02;;;;;;;22.83;15.27;;;18.10;45.50;;;;;;5074928;28;20044;-82
2022/03/30 03:28:28;;;;;;;23.75;14.15;;;18.20;45.20;;;;;;5057258;28;20028;-85
2022/03/30 03:30:54;;;;;;;20.45;13.40;;;18.30;45.10;;;;;;5074831;28;20028;-80
2022/03/30 03:33:20;;;;;;;20.98;13.38;;;18.40;45.30;;;;;;5044128;28;20029;-80
2022/03/30 03:35:47;;;;;;;19.63;13.60;;;18.20;45.40;;;;;;5045175;28;20070;-81
2022/03/30 03:38:13;;;;;;;20.05;13.10;;;17.90;45.60;;;;;;5037175;28;20490;-81
2022/03/30 03:40:40;;;;;;;23.08;13.52;;;17.90;45.90;;;;;;5060956;28;20020;-85
2022/03/30 03:43:06;;;;;;;19.52;12.02;;;17.90;45.70;;;;;;5052356;28;20677;-82
2022/03/30 03:45:32;;;;;;;21.25;12.48;;;17.80;46.20;;;;;;5057398;28;20069;-83
2022/03/30 03:47:57;;;;;;;24.05;13.40;;;17.80;46.00;;;;;;5074583;28;20032;-86
2022/03/30 03:50:23;;;;;;;27.00;13.38;;;17.60;45.90;;;;;;5056197;28;20039;-81
2022/03/30 03:52:49;;;;;;;22.60;14.02;;;17.50;46.20;;;;;;5042602;28;20116;-82
2022/03/30 03:55:15;;;;;;;21.55;12.68;;;17.60;46.20;;;;;;5045320;28;20009;-82
2022/03/30 03:57:42;;;;;;;23.67;13.57;;;17.50;46.40;;;;;;5060864;28;20024;-83
2022/03/30 04:00:10;;;;;;;21.13;11.90;;;17.40;46.20;;;;;;5056656;28;20017;-82
2022/03/30 04:02:35;;;;;;;23.65;11.75;;;17.20;47.50;;;;;;5044014;28;20066;-85
2022/03/30 04:05:02;;;;;;;17.67;11.52;;;17.20;47.60;;;;;;5052268;28;20046;-83
2022/03/30 04:07:28;;;;;;;23.60;12.57;;;17.10;47.00;;;;;;5059649;28;20059;-85
2022/03/30 04:09:54;;;;;;;17.17;11.82;;;16.60;47.20;;;;;;5073496;28;20056;-87
2022/03/30 04:12:20;;;;;;;21.38;13.02;;;16.60;47.50;;;;;;5074401;28;20024;-86
2022/03/30 04:14:45;;;;;;;19.02;11.18;;;16.60;47.80;;;;;;5056585;28;20043;-86
2022/03/30 04:17:11;;;;;;;19.67;12.30;;;16.50;48.70;;;;;;5055828;28;20028;-82
2022/03/30 04:19:38;;;;;;;18.65;11.93;;;16.40;47.90;;;;;;5046904;28;20083;-84
2022/03/30 04:22:04;;;;;;;31.92;19.08;;;15.80;49.40;;;;;;5039867;28;20032;-84
2022/03/30 04:24:30;;;;;;;26.90;14.55;;;15.40;50.90;;;;;;5039957;28;20027;-86
2022/03/30 04:26:56;;;;;;;20.90;12.88;;;15.60;50.10;;;;;;5036528;28;20017;-85
2022/03/30 04:29:21;;;;;;;24.15;12.13;;;15.80;49.10;;;;;;5058614;28;20031;-85
2022/03/30 04:31:47;;;;;;;19.35;12.07;;;15.80;48.90;;;;;;5043299;28;20047;-86
2022/03/30 04:34:13;;;;;;;21.77;12.65;;;15.90;49.00;;;;;;5043494;28;20466;-81
2022/03/30 04:36:39;;;;;;;22.15;12.07;;;16.00;49.30;;;;;;5061665;28;20480;-87
2022/03/30 04:39:04;;;;;;;16.98;11.60;;;16.20;48.90;;;;;;5066218;28;20012;-82
2022/03/30 04:41:30;;;;;;;21.45;12.98;;;16.30;48.80;;;;;;5039836;28;20526;-81
2022/03/30 04:43:56;;;;;;;22.25;13.20;;;16.10;49.50;;;;;;5063537;28;20021;-83
2022/03/30 04:46:22;;;;;;;21.63;12.60;;;15.90;49.30;;;;;;5047033;28;20055;-82
2022/03/30 04:48:47;;;;;;;27.55;16.92;;;15.40;50.50;;;;;;5046470;28;20497;-87
2022/03/30 04:51:13;;;;;;;25.45;15.50;;;15.10;51.50;;;;;;5064626;28;20021;-82
2022/03/30 04:53:39;;;;;;;29.33;18.08;;;15.20;51.20;;;;;;5055262;28;20050;-83
2022/03/30 04:56:05;;;;;;;40.33;19.92;;;15.00;51.90;;;;;;5056271;28;20027;-83
2022/03/30 04:58:31;;;;;;;24.92;16.67;;;14.90;52.60;;;;;;5056063;28;20017;-83
2022/03/30 05:00:57;;;;;;;36.38;21.65;;;15.30;51.80;;;;;;5055865;28;20020;-83
2022/03/30 05:03:22;;;;;;;30.02;20.77;;;15.50;50.60;;;;;;5055837;28;20070;-84
2022/03/30 05:05:48;;;;;;;27.33;19.17;;;15.90;50.20;;;;;;5073854;28;20020;-84
2022/03/30 05:08:14;;;;;;;28.20;17.10;;;15.60;50.20;;;;;;5073677;28;20463;-86
2022/03/30 05:10:40;;;;;;;26.25;16.05;;;15.50;51.10;;;;;;5055901;28;20021;-85
2022/03/30 05:13:06;;;;;;;23.55;16.52;;;15.90;50.30;;;;;;5054656;28;20040;-81
2022/03/30 05:15:32;;;;;;;24.40;15.15;;;16.20;49.70;;;;;;5039307;28;20108;-82
2022/03/30 05:17:59;;;;;;;22.88;13.35;;;16.50;49.20;;;;;;5048888;28;20082;-81
2022/03/30 05:20:25;;;;;;;23.35;13.88;;;16.80;48.20;;;;;;5058400;28;20354;-85
2022/03/30 05:22:51;;;;;;;25.25;14.75;;;16.80;48.60;;;;;;5053394;28;20435;-84
2022/03/30 05:25:19;;;;;;;21.80;13.20;;;17.10;47.90;;;;;;5053116;28;20025;-84
2022/03/30 05:27:45;;;;;;;19.63;13.40;;;17.30;48.10;;;;;;5036226;28;20425;-83
2022/03/30 05:30:11;;;;;;;19.13;12.85;;;17.30;48.30;;;;;;5038830;28;20017;-85
2022/03/30 05:32:37;;;;;;;21.10;12.82;;;17.40;48.30;;;;;;5057563;28;20040;-82
2022/03/30 05:35:04;;;;;;;21.42;13.13;;;17.00;48.80;;;;;;5062066;28;20029;-85
2022/03/30 05:37:31;;;;;;;26.85;13.70;;;17.00;49.40;;;;;;5061838;28;20071;-81
2022/03/30 05:39:57;;;;;;;25.70;13.40;;;17.20;48.90;;;;;;5051019;28;20025;-83
2022/03/30 05:42:23;;;;;;;26.58;16.75;;;17.30;49.00;;;;;;5062142;28;20013;-82
2022/03/30 05:44:49;;;;;;;27.00;17.20;;;17.30;49.40;;;;;;5046957;28;20138;-83
2022/03/30 05:47:16;;;;;;;29.80;18.67;;;17.60;49.10;;;;;;5058993;28;20021;-84
2022/03/30 05:49:42;;;;;;;25.17;15.02;;;17.60;48.80;;;;;;5065838;28;20017;-83
2022/03/30 05:52:08;;;;;;;23.80;15.07;;;17.60;49.30;;;;;;5057102;28;20417;-83
2022/03/30 05:54:34;;;;;;;23.40;16.20;;;18.00;48.30;;;;;;5038950;28;20082;-84
2022/03/30 05:57:00;;;;;;;23.58;14.57;;;18.00;47.60;;;;;;5039123;28;20068;-83
2022/03/30 05:59:30;;;;;;;20.83;13.45;;;18.10;47.40;;;;;;5039158;28;20023;-82
2022/03/30 06:01:57;;;;;;;21.17;13.85;;;18.50;47.00;;;;;;5038720;28;20068;-80
2022/03/30 06:04:23;;;;;;;26.15;14.18;;;18.30;47.10;;;;;;5057326;28;20021;-80
2022/03/30 06:06:52;;;;;;;20.05;14.27;;;18.50;47.00;;;;;;5056883;28;20024;-83
2022/03/30 06:09:19;;;;;;;27.98;15.45;;;18.80;46.50;;;;;;5056792;28;20336;-82
2022/03/30 06:11:45;;;;;;;30.83;17.05;;;19.10;45.80;;;;;;5039737;28;20031;-83
2022/03/30 06:14:11;;;;;;;27.45;16.20;;;19.40;45.50;;;;;;5056774;28;20051;-84
2022/03/30 06:16:37;;;;;;;25.00;15.60;;;19.50;45.50;;;;;;5039283;28;20013;-84
2022/03/30 06:19:04;;;;;;;32.42;18.30;;;19.50;45.70;;;;;;5039316;28;20025;-83
2022/03/30 06:21:30;;;;;;;35.55;20.45;;;19.70;45.50;;;;;;5039269;28;20021;-83
2022/03/30 06:23:58;;;;;;;35.47;19.65;;;19.80;45.30;;;;;;5039021;28;20029;-84
2022/03/30 06:26:24;;;;;;;29.30;19.83;;;19.80;45.10;;;;;;5038871;28;20028;-84
2022/03/30 06:28:50;;;;;;;37.47;25.88;;;19.50;45.50;;;;;;5038726;28;20082;-82
2022/03/30 06:31:19;;;;;;;30.05;17.38;;;19.60;45.50;;;;;;5038721;28;20017;-81
2022/03/30 06:33:45;;;;;;;24.20;16.17;;;19.80;45.60;;;;;;5038269;28;20497;-82
2022/03/30 06:37:25;;;;;;;23.05;15.70;;;20.10;44.70;;;;;;5087892;27;1393998;-85
2022/03/30 06:39:51;;;;;;;27.17;14.80;;;20.20;45.10;;;;;;5093105;28;20024;-84
2022/03/30 06:42:17;;;;;;;24.35;14.48;;;20.20;45.30;;;;;;5092592;28;20027;-82
2022/03/30 06:44:43;;;;;;;24.15;14.35;;;20.10;45.70;;;;;;5110866;28;20501;-83
2022/03/30 06:47:09;;;;;;;23.20;14.48;;;20.30;45.00;;;;;;5091513;28;20119;-82
2022/03/30 06:49:36;;;;;;;26.35;15.07;;;20.40;44.70;;;;;;5090858;28;20103;-83
2022/03/30 06:52:03;;;;;;;24.98;15.10;;;20.60;44.50;;;;;;5090574;28;20455;-81
2022/03/30 06:54:29;;;;;;;24.88;15.07;;;20.60;43.10;;;;;;5090438;28;20446;-84
2022/03/30 06:56:55;;;;;;;25.30;14.20;;;20.70;42.90;;;;;;5090692;28;20553;-83
2022/03/30 06:59:21;;;;;;;23.65;14.70;;;20.90;42.50;;;;;;5108781;28;20259;-82
2022/03/30 07:01:47;;;;;;;21.98;14.13;;;21.00;41.70;;;;;;5091145;28;20033;-84
2022/03/30 07:04:13;;;;;;;22.98;14.18;;;21.00;41.70;;;;;;5093066;28;20019;-84
2022/03/30 07:10:14;;;;;;;24.25;14.43;;;20.90;41.70;;;;;;5092376;28;20474;-82
2022/03/30 07:12:08;;;;;;;24.38;13.82;;;21.20;41.30;;;;;;5111093;28;20046;-83
2022/03/30 07:14:34;;;;;;;22.23;13.73;;;21.20;41.20;;;;;;5110325;28;20020;-86
2022/03/30 07:16:59;;;;;;;24.33;13.90;;;21.50;41.10;;;;;;5110646;28;20032;-86
2022/03/30 07:19:25;;;;;;;23.98;14.30;;;21.10;40.80;;;;;;5092408;28;20381;-86
2022/03/30 07:21:51;;;;;;;27.63;13.98;;;21.10;41.30;;;;;;5092281;28;20085;-85
2022/03/30 07:24:16;;;;;;;21.15;14.25;;;21.60;42.10;;;;;;5092397;28;20114;-86
2022/03/30 07:26:42;;;;;;;23.75;15.05;;;21.90;40.40;;;;;;5091987;28;20031;-86
2022/03/30 07:29:08;;;;;;;23.40;15.65;;;22.10;40.50;;;;;;5092073;28;20035;-83
2022/03/30 07:31:34;;;;;;;25.67;15.77;;;22.50;39.60;;;;;;5092313;28;20028;-86
2022/03/30 07:33:59;;;;;;;21.83;14.52;;;23.40;39.80;;;;;;5110273;28;20027;-85
2022/03/30 07:36:25;;;;;;;22.88;14.50;;;24.40;38.30;;;;;;5091863;28;20048;-84
2022/03/30 07:38:51;;;;;;;22.30;14.23;;;25.10;37.90;;;;;;5110172;28;20213;-92
2022/03/30 07:41:16;;;;;;;23.52;13.95;;;25.80;37.90;;;;;;5092032;28;20031;-87
2022/03/30 07:43:42;;;;;;;24.00;14.43;;;26.00;37.10;;;;;;5092059;28;20520;-88
2022/03/30 07:46:11;;;;;;;22.67;14.15;;;25.90;37.10;;;;;;5109608;28;20448;-91
2022/03/30 07:48:37;;;;;;;24.77;14.20;;;25.20;38.40;;;;;;5079204;28;20024;-91
2022/03/30 07:51:03;;;;;;;24.05;14.43;;;24.40;37.30;;;;;;5078249;28;20363;-83
2022/03/30 07:53:29;;;;;;;23.27;14.35;;;23.60;38.10;;;;;;5078171;28;20500;-86
2022/03/30 07:55:55;;;;;;;24.83;13.95;;;23.80;38.80;;;;;;5096364;28;20119;-84
2022/03/30 07:58:21;;;;;;;23.33;14.13;;;24.60;37.40;;;;;;5077996;28;20110;-82
2022/03/30 08:00:47;;;;;;;24.70;14.02;;;24.90;37.60;;;;;;5095949;28;20057;-86
2022/03/30 08:03:13;;;;;;;20.55;13.73;;;25.20;37.30;;;;;;5096090;28;20024;-82
2022/03/30 08:05:39;;;;;;;22.42;13.88;;;25.60;38.10;;;;;;5078032;28;20371;-85
2022/03/30 08:08:07;;;;;;;23.48;13.80;;;25.80;36.90;;;;;;5077811;28;20028;-82
2022/03/30 08:10:35;;;;;;;21.58;13.75;;;25.70;37.10;;;;;;5096110;28;20069;-83
2022/03/30 08:13:02;;;;;;;21.30;13.38;;;26.00;36.70;;;;;;5077975;28;20020;-81
2022/03/30 08:15:28;;;;;;;23.58;13.40;;;26.40;36.80;;;;;;5095396;28;20039;-80
2022/03/30 08:17:54;;;;;;;19.80;13.50;;;26.60;36.50;;;;;;5077837;28;20032;-85
2022/03/30 08:23:06;;;;;;;25.98;14.05;;;26.40;36.40;;;;;;5095876;28;20058;-80
2022/03/30 08:25:32;;;;;;;21.15;14.00;;;26.60;36.60;;;;;;5077615;28;20059;-83
2022/03/30 08:27:58;;;;;;;27.55;13.38;;;26.60;36.20;;;;;;5095841;28;20102;-80
2022/03/30 08:30:24;;;;;;;23.17;14.00;;;26.70;36.70;;;;;;5077244;28;20115;-82
2022/03/30 08:32:50;;;;;;;21.83;13.73;;;27.40;36.20;;;;;;5077884;28;20024;-82
2022/03/30 08:35:15;;;;;;;23.08;14.50;;;28.30;35.70;;;;;;5095310;28;20039;-84
2022/03/30 08:37:41;;;;;;;22.60;14.20;;;28.70;36.00;;;;;;5076840;28;20139;-83
2022/03/30 08:40:07;;;;;;;23.95;14.90;;;28.90;36.00;;;;;;5095392;28;20475;-83
2022/03/30 08:42:34;;;;;;;23.70;14.30;;;29.30;35.10;;;;;;5077084;28;20054;-84
2022/03/30 08:45:02;;;;;;;24.15;13.90;;;29.50;36.00;;;;;;5076840;28;20040;-85
2022/03/30 08:47:28;;;;;;;21.27;14.10;;;30.10;35.20;;;;;;5076521;28;20017;-84
2022/03/30 08:49:54;;;;;;;24.38;15.88;;;30.60;34.60;;;;;;5076973;28;20028;-86
2022/03/30 08:52:19;;;;;;;25.15;13.98;;;30.60;34.50;;;;;;5095073;28;20440;-83
2022/03/30 08:54:49;;;;;;;23.35;14.05;;;31.00;34.00;;;;;;5076954;28;20028;-87
2022/03/30 08:57:15;;;;;;;20.37;12.87;;;30.80;34.80;;;;;;5094724;28;20028;-84
2022/03/30 08:59:57;;;;;;;19.35;12.63;;;30.70;34.40;;;;;;5093642;28;20065;-83
2022/03/30 09:02:31;;;;;;;23.45;12.00;;;30.10;33.90;;;;;;5076736;28;20024;-85
2022/03/30 09:05:20;;;;;;;22.80;12.77;;;29.90;34.20;;;;;;5076437;28;20024;-85
2022/03/30 09:07:48;;;;;;;22.98;11.85;;;29.90;34.50;;;;;;5076641;28;20090;-86
2022/03/30 09:10:23;;;;;;;18.92;11.60;;;30.00;34.30;;;;;;5076399;28;20024;-86
2022/03/30 09:12:51;;;;;;;19.80;11.77;;;29.90;34.60;;;;;;5076616;28;20060;-86
2022/03/30 09:15:17;;;;;;;18.20;10.65;;;29.80;34.30;;;;;;5094549;28;20081;-83
2022/03/30 09:17:43;;;;;;;16.75;11.18;;;30.10;34.00;;;;;;5094412;28;20028;-87
2022/03/30 09:20:19;;;;;;;19.33;12.52;;;30.30;34.20;;;;;;5094461;28;20428;-87
2022/03/30 09:22:50;;;;;;;16.42;10.30;;;30.50;34.40;;;;;;5076101;28;20024;-85
2022/03/30 09:25:16;;;;;;;16.67;10.38;;;30.70;33.40;;;;;;5076447;28;20024;-86
2022/03/30 09:27:44;;;;;;;18.45;10.95;;;30.80;34.20;;;;;;5076092;28;20028;-87
2022/03/30 09:30:15;;;;;;;16.42;10.35;;;31.80;33.70;;;;;;5075875;28;20016;-88
2022/03/30 09:32:43;;;;;;;23.50;11.73;;;32.80;33.90;;;;;;5076246;28;20031;-82
2022/03/30 09:35:19;;;;;;;16.38;10.77;;;33.10;32.80;;;;;;5076296;28;20459;-87
2022/03/30 09:37:58;;;;;;;18.15;10.50;;;32.70;32.50;;;;;;5093877;28;20048;-84
2022/03/30 09:40:40;;;;;;;16.52;11.02;;;32.10;32.60;;;;;;5076185;28;20091;-89
2022/03/30 09:43:26;;;;;;;16.10;10.73;;;31.80;32.40;;;;;;5076120;28;20110;-81
2022/03/30 09:46:13;;;;;;;16.65;10.55;;;30.30;32.80;;;;;;5076492;28;20077;-82
2022/03/30 09:49:00;;;;;;;17.95;11.35;;;29.10;34.10;;;;;;5075822;28;20086;-86
2022/03/30 09:51:27;;;;;;;17.00;10.93;;;28.60;35.10;;;;;;5094006;28;20141;-88
2022/03/30 09:53:53;;;;;;;17.13;9.82;;;29.50;34.70;;;;;;5076443;28;20027;-86
2022/03/30 09:56:24;;;;;;;12.68;9.30;;;28.80;33.90;;;;;;5075465;28;20036;-83
2022/03/30 09:58:59;;;;;;;16.48;9.85;;;29.20;34.80;;;;;;5093518;28;20099;-86
2022/03/30 10:01:29;;;;;;;21.98;10.25;;;30.00;33.90;;;;;;5075344;28;20081;-81
2022/03/30 10:03:55;;;;;;;13.07;8.65;;;30.10;33.40;;;;;;5093466;28;20016;-87
2022/03/30 10:06:30;;;;;;;15.05;9.35;;;30.20;33.80;;;;;;5075640;28;20039;-86
2022/03/30 10:08:57;;;;;;;12.98;8.10;;;30.80;33.20;;;;;;5075778;28;20060;-82
2022/03/30 10:11:27;;;;;;;12.00;8.75;;;30.70;32.80;;;;;;5093122;28;20028;-84
2022/03/30 10:13:59;;;;;;;10.27;7.85;;;31.00;32.80;;;;;;5075719;28;20024;-82
2022/03/30 10:16:27;;;;;;;15.20;9.07;;;31.90;33.20;;;;;;5075380;28;20073;-86
2022/03/30 10:18:53;;;;;;;14.68;9.32;;;32.60;32.30;;;;;;5093864;28;20108;-82
2022/03/30 10:21:29;;;;;;;17.58;9.50;;;32.30;31.60;;;;;;5093241;28;20024;-83
2022/03/30 10:24:23;;;;;;;12.40;9.50;;;31.30;32.40;;;;;;5075259;28;20020;-91
2022/03/30 10:27:09;;;;;;;15.20;8.88;;;29.40;32.60;;;;;;5075615;28;20062;-81
2022/03/30 10:29:36;;;;;;;16.48;9.65;;;27.40;34.40;;;;;;5093647;28;20048;-91
2022/03/30 10:32:11;;;;;;;19.08;8.93;;;27.00;34.00;;;;;;5075278;28;20024;-87
2022/03/30 10:34:50;;;;;;;30.00;11.07;;;26.70;35.00;;;;;;5075171;28;20024;-82
2022/03/30 10:37:27;;;;;;;25.10;10.60;;;27.60;35.00;;;;;;5092968;28;20052;-82
2022/03/30 10:40:05;;;;;;;23.63;9.88;;;27.80;34.50;;;;;;5075259;28;20027;-87
2022/03/30 10:42:46;;;;;;;23.90;10.40;;;28.00;35.00;;;;;;5075114;28;20497;-81
2022/03/30 10:45:33;;;;;;;18.63;9.95;;;27.60;34.20;;;;;;5093406;28;20031;-81
2022/03/30 10:48:18;;;;;;;18.02;9.95;;;26.20;34.80;;;;;;5075096;28;20035;-81
2022/03/30 10:50:46;;;;;;;19.48;10.00;;;26.00;35.40;;;;;;5093148;28;20036;-81
2022/03/30 10:53:30;;;;;;;18.88;9.75;;;26.50;35.10;;;;;;5093420;28;20026;-87
2022/03/30 10:56:18;;;;;;;19.55;10.45;;;26.40;36.10;;;;;;5093188;28;20020;-81
2022/03/30 10:58:49;;;;;;;26.83;11.40;;;26.60;35.30;;;;;;5074932;28;20028;-81
2022/03/30 11:01:24;;;;;;;21.13;10.43;;;26.50;34.90;;;;;;5092897;28;20028;-88
2022/03/30 11:04:18;;;;;;;22.25;10.40;;;25.70;35.70;;;;;;5092955;28;20024;-89
2022/03/30 11:07:05;;;;;;;14.85;9.65;;;24.70;36.40;;;;;;5075636;28;20057;-91
2022/03/30 11:09:32;;;;;;;26.20;9.98;;;24.70;36.40;;;;;;5075465;28;20032;-87
2022/03/30 11:12:14;;;;;;;15.27;9.73;;;24.60;36.90;;;;;;5075172;28;20024;-82
2022/03/30 11:14:46;;;;;;;23.50;10.00;;;24.70;36.10;;;;;;5074816;28;20020;-92
2022/03/30 11:17:15;;;;;;;18.10;9.65;;;24.30;36.70;;;;;;5075132;28;20039;-80
2022/03/30 11:20:03;;;;;;;18.02;9.60;;;24.10;37.20;;;;;;5075225;28;20115;-86
2022/03/30 11:22:32;;;;;;;15.63;9.70;;;24.30;36.50;;;;;;5094265;28;20035;-81
2022/03/30 11:25:07;;;;;;;16.35;9.77;;;24.10;36.60;;;;;;5078626;28;20024;-91
2022/03/30 11:27:33;;;;;;;15.25;9.57;;;23.90;37.10;;;;;;5079158;28;20093;-81
2022/03/30 11:30:03;;;;;;;19.30;9.57;;;23.80;36.80;;;;;;5078628;28;20024;-81
2022/03/30 11:32:34;;;;;;;17.77;11.48;;;23.70;37.10;;;;;;5096982;28;20020;-82
2022/03/30 11:35:05;;;;;;;18.63;11.85;;;23.60;37.30;;;;;;5078614;28;20039;-81
2022/03/30 11:37:32;;;;;;;20.15;11.98;;;23.70;37.40;;;;;;5078231;28;20047;-88
2022/03/30 11:40:11;;;;;;;21.25;13.32;;;24.00;37.20;;;;;;5078506;28;20028;-81
2022/03/30 11:42:42;;;;;;;21.25;13.52;;;24.10;37.10;;;;;;5078360;28;20028;-88
2022/03/30 11:45:14;;;;;;;24.60;15.02;;;23.90;37.50;;;;;;5078534;28;20052;-80
2022/03/30 11:47:49;;;;;;;23.75;15.10;;;24.00;37.20;;;;;;5078366;28;20020;-85
2022/03/30 11:50:17;;;;;;;26.92;14.90;;;23.60;36.60;;;;;;5096540;28;20027;-88
2022/03/30 11:53:02;;;;;;;21.88;13.27;;;23.60;37.50;;;;;;5078268;28;20032;-88
2022/03/30 11:55:29;;;;;;;27.98;15.55;;;23.60;36.90;;;;;;5096050;28;20020;-83
2022/03/30 11:57:57;;;;;;;23.35;12.65;;;23.30;36.90;;;;;;5077689;28;20467;-81
2022/03/30 12:00:26;;;;;;;21.50;12.88;;;23.00;37.30;;;;;;5077836;28;20028;-82
2022/03/30 12:02:56;;;;;;;21.27;11.82;;;23.10;37.70;;;;;;5096083;28;20051;-83
2022/03/30 12:05:22;;;;;;;14.50;10.63;;;23.40;37.10;;;;;;5078165;28;20020;-86
2022/03/30 12:07:53;;;;;;;18.52;11.32;;;23.60;36.90;;;;;;5078407;28;20490;-86
2022/03/30 12:10:19;;;;;;;15.18;10.85;;;24.00;36.50;;;;;;5095705;28;20020;-86
2022/03/30 12:12:45;;;;;;;18.10;11.80;;;24.40;36.10;;;;;;5096354;28;20027;-82
2022/03/30 12:15:16;;;;;;;20.35;11.80;;;24.70;36.50;;;;;;5077510;28;20046;-81
2022/03/30 12:17:43;;;;;;;18.90;11.43;;;25.50;36.30;;;;;;5076798;28;20027;-83
2022/03/30 12:20:20;;;;;;;20.25;13.13;;;26.00;35.70;;;;;;5077626;28;20028;-81
2022/03/30 12:22:59;;;;;;;20.77;12.60;;;25.60;36.30;;;;;;5077867;28;20051;-90
2022/03/30 12:25:30;;;;;;;21.65;12.57;;;23.70;36.70;;;;;;5095966;28;20100;-80
2022/03/30 12:27:56;;;;;;;20.80;13.00;;;23.10;38.50;;;;;;5091816;28;20076;-81
2022/03/30 12:30:23;;;;;;;22.60;13.00;;;23.90;37.60;;;;;;5077941;28;20020;-86
2022/03/30 12:32:49;;;;;;;22.83;12.65;;;25.00;37.10;;;;;;5095951;28;20020;-85
2022/03/30 12:35:17;;;;;;;20.25;11.85;;;25.40;36.20;;;;;;5077386;28;20028;-86
2022/03/30 12:37:46;;;;;;;18.73;11.57;;;25.70;35.60;;;;;;5077019;28;20097;-79
2022/03/30 12:40:15;;;;;;;19.40;11.27;;;25.50;36.10;;;;;;5095734;28;20048;-83
2022/03/30 12:42:43;;;;;;;21.77;11.82;;;24.70;36.90;;;;;;5077004;28;20123;-87